createdAt,value
2023-04-27T00:00:11.522Z,100818.60
2023-04-27T00:03:06.154Z,100822.40
2023-04-27T00:05:40.949Z,100817.60
2023-04-27T00:08:10.291Z,100820.00
2023-04-27T00:10:38.187Z,100823.80
2023-04-27T00:13:06.670Z,100823.00
2023-04-27T00:15:34.541Z,100827.00
2023-04-27T00:18:02.951Z,100831.40
2023-04-27T00:20:31.131Z,100829.20
2023-04-27T00:22:59.060Z,100830.40
2023-04-27T00:25:26.927Z,100831.60
2023-04-27T00:27:55.641Z,100832.60
2023-04-27T00:30:25.815Z,100829.80
2023-04-27T00:32:54.068Z,100833.60
2023-04-27T00:35:22.100Z,100832.40
2023-04-27T00:37:50.852Z,100834.80
2023-04-27T00:40:21.920Z,100832.40
2023-04-27T00:42:52.124Z,100833.40
2023-04-27T00:45:21.171Z,100835.60
2023-04-27T00:47:51.725Z,100837.40
2023-04-27T00:50:32.125Z,100839.80
2023-04-27T00:53:02.364Z,100839.40
2023-04-27T00:55:30.382Z,100841.00
2023-04-27T00:57:58.236Z,100833.80
2023-04-27T01:00:26.423Z,100836.20
2023-04-27T01:02:56.140Z,100829.60
2023-04-27T01:05:32.476Z,100828.00
2023-04-27T01:08:03.270Z,100826.80
2023-04-27T01:10:31.165Z,100833.00
2023-04-27T01:12:59.385Z,100833.80
2023-04-27T01:15:27.718Z,100839.60
2023-04-27T01:18:04.541Z,100843.00
2023-04-27T01:20:32.971Z,100846.60
2023-04-27T01:23:00.950Z,100850.20
2023-04-27T01:25:30.287Z,100849.20
2023-04-27T01:27:58.130Z,100852.00
2023-04-27T01:30:30.153Z,100850.80
2023-04-27T01:32:58.111Z,100850.40
2023-04-27T01:35:28.247Z,100852.20
2023-04-27T01:37:59.729Z,100851.60
2023-04-27T01:40:28.068Z,100853.40
2023-04-27T01:42:56.243Z,100852.40
2023-04-27T01:45:25.186Z,100857.00
2023-04-27T01:47:53.813Z,100852.40
2023-04-27T01:50:22.606Z,100859.00
2023-04-27T01:52:53.404Z,100853.60
2023-04-27T01:55:21.602Z,100848.20
2023-04-27T01:57:49.935Z,100851.00
2023-04-27T02:00:19.592Z,100850.60
2023-04-27T02:02:47.676Z,100849.40
2023-04-27T02:05:18.707Z,100848.00
2023-04-27T02:07:47.620Z,100849.60
2023-04-27T02:10:19.414Z,100848.80
2023-04-27T02:12:51.559Z,100851.20
2023-04-27T02:15:19.788Z,100838.80
2023-04-27T02:17:50.195Z,100838.80
2023-04-27T02:20:18.348Z,100840.40
2023-04-27T02:22:46.357Z,100841.20
2023-04-27T02:25:14.364Z,100847.60
2023-04-27T02:27:43.823Z,100845.80
2023-04-27T02:30:13.290Z,100847.20
2023-04-27T02:32:42.293Z,100853.40
2023-04-27T02:35:11.095Z,100857.00
2023-04-27T02:37:39.679Z,100851.80
2023-04-27T02:40:09.468Z,100848.60
2023-04-27T02:42:39.445Z,100848.40
2023-04-27T02:45:08.433Z,100852.80
2023-04-27T02:47:37.372Z,100849.40
2023-04-27T02:50:06.717Z,100851.40
2023-04-27T02:52:37.732Z,100852.60
2023-04-27T02:55:08.700Z,100855.80
2023-04-27T02:57:39.279Z,100855.40
2023-04-27T03:00:11.122Z,100854.00
2023-04-27T03:02:40.041Z,100851.20
2023-04-27T03:05:09.070Z,100855.00
2023-04-27T03:07:37.964Z,100846.60
2023-04-27T03:10:06.272Z,100852.80
2023-04-27T03:12:35.472Z,100854.80
2023-04-27T03:15:06.111Z,100855.40
2023-04-27T03:17:34.621Z,100854.00
2023-04-27T03:20:05.761Z,100850.20
2023-04-27T03:22:33.588Z,100845.60
2023-04-27T03:25:03.916Z,100851.00
2023-04-27T03:27:31.884Z,100849.80
2023-04-27T03:30:01.234Z,100848.40
2023-04-27T03:32:29.099Z,100851.60
2023-04-27T03:34:57.234Z,100857.00
2023-04-27T03:37:25.328Z,100850.00
2023-04-27T03:39:53.368Z,100852.80
2023-04-27T03:42:23.568Z,100851.40
2023-04-27T03:44:52.433Z,100857.80
2023-04-27T03:47:20.183Z,100854.80
2023-04-27T03:49:48.075Z,100859.80
2023-04-27T03:52:16.977Z,100863.80
2023-04-27T03:54:45.973Z,100863.00
2023-04-27T03:57:16.098Z,100866.20
2023-04-27T03:59:44.388Z,100868.60
2023-04-27T04:02:12.257Z,100872.00
2023-04-27T04:04:40.302Z,100872.80
2023-04-27T04:07:08.316Z,100873.60
2023-04-27T04:09:36.154Z,100876.00
2023-04-27T04:12:04.470Z,100873.20
2023-04-27T04:14:33.544Z,100874.80
2023-04-27T04:17:02.607Z,100873.60
2023-04-27T04:19:30.707Z,100878.60
2023-04-27T04:21:59.222Z,100882.20
2023-04-27T04:24:29.449Z,100881.40
2023-04-27T04:27:00.559Z,100881.60
2023-04-27T04:29:29.180Z,100882.60
2023-04-27T04:31:57.340Z,100890.20
2023-04-27T04:34:26.583Z,100889.00
2023-04-27T04:36:57.471Z,100891.60
2023-04-27T04:39:27.069Z,100890.20
2023-04-27T04:41:55.150Z,100886.00
2023-04-27T04:44:23.405Z,100884.60
2023-04-27T04:46:51.436Z,100887.80
2023-04-27T04:49:19.523Z,100889.00
2023-04-27T04:51:47.472Z,100896.00
2023-04-27T04:54:16.144Z,100900.40
2023-04-27T04:56:44.070Z,100900.80
2023-04-27T04:59:12.356Z,100898.80
2023-04-27T05:01:42.162Z,100903.40
2023-04-27T05:04:11.098Z,100904.60
2023-04-27T05:06:39.209Z,100910.60
2023-04-27T05:09:08.282Z,100913.20
2023-04-27T05:11:36.298Z,100908.60
2023-04-27T05:14:04.353Z,100914.60
2023-04-27T05:16:33.163Z,100916.00
2023-04-27T05:19:01.687Z,100919.40
2023-04-27T05:21:29.523Z,100921.80
2023-04-27T05:23:57.620Z,100927.40
2023-04-27T05:26:27.633Z,100927.20
2023-04-27T05:28:56.692Z,100928.60
2023-04-27T05:31:25.430Z,100930.40
2023-04-27T05:33:54.574Z,100936.00
2023-04-27T05:36:22.746Z,100927.00
2023-04-27T05:38:50.857Z,100929.80
2023-04-27T05:41:18.741Z,100920.60
2023-04-27T05:43:46.885Z,100920.00
2023-04-27T05:46:15.363Z,100923.20
2023-04-27T05:48:43.336Z,100926.80
2023-04-27T05:51:11.669Z,100928.00
2023-04-27T05:53:41.427Z,100929.00
2023-04-27T05:56:11.856Z,100930.40
2023-04-27T05:58:40.129Z,100930.80
2023-04-27T06:01:08.403Z,100929.40
2023-04-27T06:03:36.986Z,100934.20
2023-04-27T06:06:05.596Z,100941.80
2023-04-27T06:08:38.596Z,100943.20
2023-04-27T06:11:07.308Z,100956.60
2023-04-27T06:13:35.113Z,100955.80
2023-04-27T06:16:03.122Z,100964.20
2023-04-27T06:18:31.763Z,100956.60
2023-04-27T06:21:01.875Z,100960.20
2023-04-27T06:23:30.636Z,100960.80
2023-04-27T06:25:59.069Z,100970.20
2023-04-27T06:28:27.801Z,100972.60
2023-04-27T06:30:56.426Z,100975.40
2023-04-27T06:33:24.368Z,100977.80
2023-04-27T06:35:52.276Z,100979.40
2023-04-27T06:38:20.134Z,100979.20
2023-04-27T06:40:53.364Z,100983.00
2023-04-27T06:43:21.247Z,100990.80
2023-04-27T06:45:49.125Z,100993.40
2023-04-27T06:48:17.327Z,100996.20
2023-04-27T06:50:46.251Z,100997.60
2023-04-27T06:53:14.278Z,101005.60
2023-04-27T06:55:44.983Z,101016.40
2023-04-27T06:58:14.036Z,101016.80
2023-04-27T07:00:41.867Z,101020.40
2023-04-27T07:03:10.462Z,101017.00
2023-04-27T07:05:38.867Z,101020.80
2023-04-27T07:08:08.823Z,101025.80
2023-04-27T07:10:37.147Z,101029.40
2023-04-27T07:13:07.282Z,101027.20
2023-04-27T07:15:36.992Z,101030.20
2023-04-27T07:18:05.130Z,101032.40
2023-04-27T07:20:33.418Z,101039.00
2023-04-27T07:23:01.410Z,101033.80
2023-04-27T07:25:29.670Z,101037.60
2023-04-27T07:27:59.866Z,101043.00
2023-04-27T07:30:31.140Z,101048.20
2023-04-27T07:33:01.123Z,101047.60
2023-04-27T07:35:29.207Z,101050.60
2023-04-27T07:38:03.247Z,101049.80
2023-04-27T07:40:32.914Z,101049.60
2023-04-27T07:43:01.092Z,101047.20
2023-04-27T07:45:33.549Z,101050.60
2023-04-27T07:48:02.007Z,101052.00
2023-04-27T07:50:31.084Z,101056.40
2023-04-27T07:53:02.320Z,101069.20
2023-04-27T07:55:30.820Z,101071.00
2023-04-27T07:57:59.245Z,101068.00
2023-04-27T08:00:27.266Z,101080.80
2023-04-27T08:02:56.705Z,101079.80
2023-04-27T08:05:26.118Z,101089.20
2023-04-27T08:07:54.953Z,101088.80
2023-04-27T08:10:24.034Z,101092.00
2023-04-27T08:12:52.405Z,101094.20
2023-04-27T08:15:21.534Z,101080.60
2023-04-27T08:17:49.893Z,101086.80
2023-04-27T08:20:17.823Z,101093.40
2023-04-27T08:22:46.055Z,101100.00
2023-04-27T08:25:13.913Z,101098.20
2023-04-27T08:27:41.972Z,101093.00
2023-04-27T08:30:11.438Z,101096.20
2023-04-27T08:32:40.122Z,101092.60
2023-04-27T08:35:08.336Z,101089.40
2023-04-27T08:37:36.419Z,101091.60
2023-04-27T08:40:10.096Z,101097.40
2023-04-27T08:42:42.107Z,101093.00
2023-04-27T08:45:11.391Z,101103.20
2023-04-27T08:47:43.906Z,101101.20
2023-04-27T08:50:12.848Z,101110.40
2023-04-27T08:52:47.432Z,101113.40
2023-04-27T08:55:16.713Z,101111.20
2023-04-27T08:57:56.283Z,101107.60
2023-04-27T09:00:26.853Z,101107.80
2023-04-27T09:02:55.320Z,101120.40
2023-04-27T09:05:24.268Z,101111.60
2023-04-27T09:08:02.275Z,101125.40
2023-04-27T09:10:30.947Z,101126.60
2023-04-27T09:13:01.289Z,101119.00
2023-04-27T09:15:29.702Z,101127.20
2023-04-27T09:17:59.623Z,101114.60
2023-04-27T09:20:28.769Z,101117.60
2023-04-27T09:23:02.831Z,101123.00
2023-04-27T09:25:33.725Z,101133.40
2023-04-27T09:28:02.047Z,101130.80
2023-04-27T09:30:30.704Z,101123.60
2023-04-27T09:33:02.682Z,101138.00
2023-04-27T09:35:33.578Z,101133.60
2023-04-27T09:38:01.612Z,101132.00
2023-04-27T09:40:31.511Z,101124.80
2023-04-27T09:43:04.402Z,101125.00
2023-04-27T09:45:34.705Z,101124.60
2023-04-27T09:48:06.605Z,101128.80
2023-04-27T09:50:41.269Z,101140.60
2023-04-27T09:53:14.508Z,101138.60
2023-04-27T09:56:02.021Z,101145.40
2023-04-27T09:58:47.841Z,101147.00
2023-04-27T10:01:52.130Z,101147.80
2023-04-27T10:05:03.997Z,101158.40
2023-04-27T10:07:33.377Z,101165.80
2023-04-27T10:10:05.326Z,101160.20
2023-04-27T10:12:36.801Z,101156.60
2023-04-27T10:15:20.174Z,101160.80
2023-04-27T10:17:58.910Z,101170.20
2023-04-27T10:20:33.745Z,101178.00
2023-04-27T10:23:01.689Z,101168.80
2023-04-27T10:25:40.731Z,101182.00
2023-04-27T10:28:16.176Z,101172.60
2023-04-27T10:30:52.289Z,101183.80
2023-04-27T10:33:22.941Z,101179.40
2023-04-27T10:35:56.944Z,101180.40
2023-04-27T10:38:31.045Z,101185.20
2023-04-27T10:41:05.718Z,101183.00
2023-04-27T10:43:36.109Z,101190.80
2023-04-27T10:46:14.210Z,101185.40
2023-04-27T10:48:44.998Z,101191.60
2023-04-27T10:51:18.262Z,101185.80
2023-04-27T10:53:48.077Z,101197.80
2023-04-27T10:56:15.996Z,101205.40
2023-04-27T10:58:48.748Z,101197.40
2023-04-27T11:01:29.438Z,101206.80
2023-04-27T11:04:03.679Z,101200.20
2023-04-27T11:06:33.604Z,101187.80
2023-04-27T11:09:01.883Z,101208.60
2023-04-27T11:11:29.803Z,101213.20
2023-04-27T11:13:58.976Z,101208.20
2023-04-27T11:16:26.849Z,101215.60
2023-04-27T11:18:54.878Z,101205.20
2023-04-27T11:21:23.667Z,101207.80
2023-04-27T11:23:51.570Z,101220.00
2023-04-27T11:26:23.795Z,101226.00
2023-04-27T11:29:10.310Z,101223.20
2023-04-27T11:31:48.835Z,101224.80
2023-04-27T11:34:23.003Z,101219.20
2023-04-27T11:39:41.886Z,101229.00
2023-04-27T11:42:24.575Z,101229.80
2023-04-27T11:45:01.842Z,101230.40
2023-04-27T11:47:33.045Z,101236.60
2023-04-27T11:50:08.640Z,101239.00
2023-04-27T11:52:40.466Z,101237.00
2023-04-27T11:55:16.022Z,101241.40
2023-04-27T11:57:44.201Z,101247.60
2023-04-27T12:00:14.670Z,101245.00
2023-04-27T12:02:44.432Z,101247.60
2023-04-27T12:05:13.643Z,101247.40
2023-04-27T12:07:43.345Z,101242.20
2023-04-27T12:10:11.879Z,101259.00
2023-04-27T12:12:39.886Z,101259.40
2023-04-27T12:15:10.638Z,101264.20
2023-04-27T12:17:39.858Z,101266.40
2023-04-27T12:20:08.657Z,101268.40
2023-04-27T12:22:36.582Z,101271.80
2023-04-27T12:25:06.958Z,101272.40
2023-04-27T12:27:34.789Z,101280.00
2023-04-27T12:30:04.601Z,101278.80
2023-04-27T12:32:32.480Z,101285.60
2023-04-27T12:35:00.695Z,101291.60
2023-04-27T12:37:28.477Z,101289.40
2023-04-27T12:39:58.849Z,101301.40
2023-04-27T12:42:27.545Z,101300.60
2023-04-27T12:44:55.611Z,101296.60
2023-04-27T12:47:49.744Z,101299.00
2023-04-27T12:50:16.393Z,101296.60
2023-04-27T12:52:44.888Z,101295.80
2023-04-27T12:55:24.831Z,101297.40
2023-04-27T12:58:00.962Z,101297.00
2023-04-27T13:00:29.874Z,101306.40
2023-04-27T13:03:00.858Z,101314.40
2023-04-27T13:05:31.887Z,101308.40
2023-04-27T13:08:03.218Z,101313.40
2023-04-27T13:10:31.188Z,101312.20
2023-04-27T13:13:00.088Z,101316.00
2023-04-27T13:15:29.724Z,101313.80
2023-04-27T13:18:01.414Z,101323.20
2023-04-27T13:20:31.037Z,101324.80
2023-04-27T13:22:58.838Z,101319.40
2023-04-27T13:25:27.275Z,101315.20
2023-04-27T13:27:58.022Z,101322.20
2023-04-27T13:30:26.089Z,101332.60
2023-04-27T13:32:54.435Z,101327.40
2023-04-27T13:35:23.886Z,101330.20
2023-04-27T13:37:54.048Z,101333.80
2023-04-27T13:40:22.608Z,101338.40
2023-04-27T13:42:51.045Z,101334.60
2023-04-27T13:45:18.964Z,101330.00
2023-04-27T13:47:49.364Z,101329.00
2023-04-27T13:50:20.337Z,101329.60
2023-04-27T13:52:49.435Z,101332.20
2023-04-27T13:55:17.592Z,101328.80
2023-04-27T13:57:46.846Z,101335.80
2023-04-27T14:00:15.612Z,101336.40
2023-04-27T14:02:43.606Z,101333.80
2023-04-27T14:05:14.657Z,101323.60
2023-04-27T14:07:42.547Z,101324.80
2023-04-27T14:10:11.180Z,101336.40
2023-04-27T14:12:41.745Z,101344.40
2023-04-27T14:15:10.645Z,101341.80
2023-04-27T14:17:38.609Z,101335.20
2023-04-27T14:20:08.034Z,101339.00
2023-04-27T14:22:39.077Z,101342.80
2023-04-27T14:25:08.219Z,101341.40
2023-04-27T14:27:37.110Z,101343.20
2023-04-27T14:30:07.399Z,101339.20
2023-04-27T14:32:37.755Z,101352.40
2023-04-27T14:35:06.131Z,101348.40
2023-04-27T14:37:34.137Z,101349.00
2023-04-27T14:40:04.476Z,101351.80
2023-04-27T14:42:32.343Z,101349.60
2023-04-27T14:45:00.306Z,101365.60
2023-04-27T14:47:28.406Z,101351.00
2023-04-27T14:49:57.919Z,101362.00
2023-04-27T14:52:29.251Z,101363.40
2023-04-27T14:54:57.410Z,101365.60
2023-04-27T14:57:25.780Z,101381.60
2023-04-27T14:59:54.202Z,101381.00
2023-04-27T15:02:22.154Z,101375.20
2023-04-27T15:04:51.264Z,101388.80
2023-04-27T15:07:22.005Z,101387.80
2023-04-27T15:09:51.522Z,101393.60
2023-04-27T15:12:19.747Z,101390.80
2023-04-27T15:14:52.910Z,101397.00
2023-04-27T15:17:20.996Z,101391.40
2023-04-27T15:19:49.288Z,101395.80
2023-04-27T15:22:25.615Z,101391.40
2023-04-27T15:24:53.774Z,101392.80
2023-04-27T15:27:22.050Z,101397.20
2023-04-27T15:29:54.674Z,101395.60
2023-04-27T15:32:30.097Z,101399.40
2023-04-27T15:34:58.817Z,101398.00
2023-04-27T15:37:31.473Z,101393.00
2023-04-27T15:40:00.054Z,101395.00
2023-04-27T15:42:30.641Z,101398.60
2023-04-27T15:45:01.159Z,101403.60
2023-04-27T15:47:29.031Z,101404.60
2023-04-27T15:49:58.288Z,101410.20
2023-04-27T15:52:28.766Z,101415.20
2023-04-27T15:54:57.265Z,101413.00
2023-04-27T15:57:26.154Z,101414.40
2023-04-27T15:59:54.552Z,101408.00
2023-04-27T16:02:25.330Z,101411.20
2023-04-27T16:04:56.735Z,101409.00
2023-04-27T16:07:24.848Z,101421.20
2023-04-27T16:09:52.628Z,101421.00
2023-04-27T16:12:20.566Z,101424.00
2023-04-27T16:14:48.631Z,101427.20
2023-04-27T16:17:19.683Z,101430.00
2023-04-27T16:19:49.624Z,101427.60
2023-04-27T16:22:17.604Z,101430.60
2023-04-27T16:24:46.097Z,101433.80
2023-04-27T16:27:14.235Z,101433.00
2023-04-27T16:29:42.017Z,101434.00
2023-04-27T16:32:11.071Z,101436.80
2023-04-27T16:34:39.151Z,101437.40
2023-04-27T16:37:08.497Z,101438.40
2023-04-27T16:39:36.403Z,101441.20
2023-04-27T16:42:05.439Z,101437.20
2023-04-27T16:44:33.292Z,101450.00
2023-04-27T16:47:01.648Z,101452.00
2023-04-27T16:49:29.460Z,101453.20
2023-04-27T16:51:58.491Z,101453.60
2023-04-27T16:54:28.990Z,101452.80
2023-04-27T16:56:57.095Z,101453.60
2023-04-27T16:59:26.009Z,101459.60
2023-04-27T17:01:56.510Z,101462.80
2023-04-27T17:04:24.765Z,101460.80
2023-04-27T17:06:52.763Z,101463.40
2023-04-27T17:09:20.523Z,101468.00
2023-04-27T17:11:48.716Z,101470.20
2023-04-27T17:14:19.909Z,101475.60
2023-04-27T17:16:47.866Z,101476.00
2023-04-27T17:19:15.926Z,101475.20
2023-04-27T17:21:45.327Z,101482.40
2023-04-27T17:24:13.458Z,101477.00
2023-04-27T17:26:41.702Z,101476.40
2023-04-27T17:29:10.558Z,101475.20
2023-04-27T17:31:42.520Z,101475.60
2023-04-27T17:34:12.321Z,101477.00
2023-04-27T17:36:40.796Z,101480.20
2023-04-27T17:39:09.055Z,101476.60
2023-04-27T17:41:39.517Z,101485.40
2023-04-27T17:44:08.121Z,101487.40
2023-04-27T17:46:38.435Z,101491.20
2023-04-27T17:49:08.810Z,101494.40
2023-04-27T17:51:37.203Z,101498.20
2023-04-27T17:54:05.139Z,101502.40
2023-04-27T17:56:48.369Z,101507.40
2023-04-27T17:59:16.966Z,101514.00
2023-04-27T18:01:48.655Z,101512.20
2023-04-27T18:04:17.168Z,101509.80
2023-04-27T18:06:45.196Z,101512.60
2023-04-27T18:09:16.416Z,101514.20
2023-04-27T18:11:47.272Z,101514.60
2023-04-27T18:14:15.154Z,101522.20
2023-04-27T18:16:43.037Z,101521.40
2023-04-27T18:19:12.570Z,101523.00
2023-04-27T18:21:41.133Z,101526.80
2023-04-27T18:24:12.120Z,101529.00
2023-04-27T18:26:41.521Z,101532.40
2023-04-27T18:29:09.748Z,101534.80
2023-04-27T18:31:38.302Z,101535.40
2023-04-27T18:34:06.567Z,101543.40
2023-04-27T18:36:38.566Z,101545.80
2023-04-27T18:39:12.858Z,101552.00
2023-04-27T18:41:41.250Z,101553.40
2023-04-27T18:44:09.344Z,101557.20
2023-04-27T18:46:40.570Z,101558.60
2023-04-27T18:49:08.499Z,101562.40
2023-04-27T18:51:39.378Z,101562.00
2023-04-27T18:54:09.233Z,101559.00
2023-04-27T18:56:37.796Z,101569.20
2023-04-27T18:59:05.826Z,101566.80
2023-04-27T19:01:33.937Z,101566.00
2023-04-27T19:04:04.288Z,101568.40
2023-04-27T19:06:33.339Z,101567.60
2023-04-27T19:09:02.160Z,101576.80
2023-04-27T19:11:30.374Z,101577.40
2023-04-27T19:13:59.955Z,101583.20
2023-04-27T19:16:28.894Z,101588.20
2023-04-27T19:18:57.356Z,101590.40
2023-04-27T19:21:28.315Z,101590.40
2023-04-27T19:23:56.717Z,101597.00
2023-04-27T19:26:26.032Z,101594.80
2023-04-27T19:28:58.009Z,101592.40
2023-04-27T19:31:29.591Z,101596.80
2023-04-27T19:34:04.139Z,101603.20
2023-04-27T19:36:34.040Z,101601.00
2023-04-27T19:39:03.857Z,101598.40
2023-04-27T19:41:33.241Z,101597.40
2023-04-27T19:44:08.201Z,101598.20
2023-04-27T19:46:36.189Z,101600.40
2023-04-27T19:49:07.003Z,101601.60
2023-04-27T19:51:35.283Z,101601.40
2023-04-27T19:54:05.388Z,101602.00
2023-04-27T19:56:34.321Z,101600.20
2023-04-27T19:59:02.880Z,101604.60
2023-04-27T20:01:31.676Z,101607.20
2023-04-27T20:04:02.206Z,101609.40
2023-04-27T20:06:31.149Z,101609.60
2023-04-27T20:08:58.976Z,101611.60
2023-04-27T20:11:26.885Z,101612.80
2023-04-27T20:13:54.721Z,101612.60
2023-04-27T20:16:25.832Z,101617.40
2023-04-27T20:18:55.517Z,101617.40
2023-04-27T20:21:26.378Z,101616.00
2023-04-27T20:23:54.156Z,101614.80
2023-04-27T20:26:24.605Z,101619.60
2023-04-27T20:28:52.920Z,101620.80
2023-04-27T20:31:21.624Z,101621.40
2023-04-27T20:33:51.588Z,101620.00
2023-04-27T20:36:20.057Z,101620.60
2023-04-27T20:38:47.911Z,101623.00
2023-04-27T20:41:15.889Z,101617.20
2023-04-27T20:43:47.831Z,101622.40
2023-04-27T20:46:17.223Z,101625.40
2023-04-27T20:48:52.520Z,101624.20
2023-04-27T20:51:20.897Z,101626.80
2023-04-27T20:53:48.815Z,101627.00
2023-04-27T20:56:17.097Z,101625.60
2023-04-27T20:58:45.066Z,101631.20
2023-04-27T21:01:12.958Z,101630.40
2023-04-27T21:03:43.270Z,101628.00
2023-04-27T21:06:12.594Z,101630.20
2023-04-27T21:08:40.588Z,101634.60
2023-04-27T21:11:09.517Z,101633.40
2023-04-27T21:13:39.025Z,101628.20
2023-04-27T21:16:08.141Z,101634.40
2023-04-27T21:18:36.714Z,101634.40
2023-04-27T21:21:06.959Z,101632.20
2023-04-27T21:23:36.080Z,101630.60
2023-04-27T21:26:03.948Z,101634.00
2023-04-27T21:28:32.603Z,101632.60
2023-04-27T21:31:00.632Z,101642.80
2023-04-27T21:33:31.794Z,101642.40
2023-04-27T21:36:00.049Z,101645.60
2023-04-27T21:38:27.873Z,101650.00
2023-04-27T21:40:55.704Z,101649.80
2023-04-27T21:43:24.044Z,101651.40
2023-04-27T21:45:52.026Z,101652.20
2023-04-27T21:48:21.074Z,101653.60
2023-04-27T21:50:48.982Z,101650.80
2023-04-27T21:53:17.066Z,101652.00
2023-04-27T21:55:45.959Z,101651.40
2023-04-27T21:58:14.319Z,101652.20
2023-04-27T22:00:42.668Z,101656.40
2023-04-27T22:03:10.610Z,101663.40
2023-04-27T22:05:40.334Z,101662.20
2023-04-27T22:08:09.604Z,101665.00
2023-04-27T22:10:41.684Z,101668.40
2023-04-27T22:13:18.778Z,101671.60
2023-04-27T22:15:48.598Z,101674.00
2023-04-27T22:18:19.813Z,101672.60
2023-04-27T22:20:49.671Z,101679.40
2023-04-27T22:23:21.702Z,101682.00
2023-04-27T22:25:50.969Z,101679.80
2023-04-27T22:28:19.087Z,101683.40
2023-04-27T22:30:47.400Z,101687.20
2023-04-27T22:33:16.680Z,101686.20
2023-04-27T22:35:45.499Z,101689.40
2023-04-27T22:38:14.643Z,101690.20
2023-04-27T22:40:43.764Z,101691.80
2023-04-27T22:43:11.556Z,101690.40
2023-04-27T22:45:40.294Z,101693.60
2023-04-27T22:48:08.600Z,101694.00
2023-04-27T22:50:38.812Z,101697.20
2023-04-27T22:53:07.472Z,101697.40
2023-04-27T22:55:35.295Z,101704.20
2023-04-27T22:58:03.119Z,101704.40
2023-04-27T23:00:31.331Z,101709.60
2023-04-27T23:02:59.396Z,101707.80
2023-04-27T23:05:29.192Z,101706.40
2023-04-27T23:07:57.431Z,101714.40
2023-04-27T23:10:26.880Z,101710.40
2023-04-27T23:12:58.046Z,101711.60
2023-04-27T23:15:26.354Z,101708.60
2023-04-27T23:17:54.650Z,101713.40
2023-04-27T23:22:53.799Z,101713.40
2023-04-27T23:25:22.183Z,101717.60
2023-04-27T23:27:52.149Z,101720.40
2023-04-27T23:30:23.677Z,101724.00
2023-04-27T23:32:52.119Z,101726.80
2023-04-27T23:35:20.943Z,101730.20
2023-04-27T23:37:49.995Z,101729.60
2023-04-27T23:40:19.391Z,101728.40
2023-04-27T23:42:48.228Z,101730.20
2023-04-27T23:45:18.081Z,101733.60
2023-04-27T23:47:46.408Z,101737.20
2023-04-27T23:50:15.693Z,101734.80
2023-04-27T23:52:43.599Z,101731.20
2023-04-27T23:55:12.388Z,101731.00
2023-04-27T23:57:40.237Z,101731.40
